Pearce, AZ (85625)

5:20 PM MST on September 01, 2015 (GMT -0700)
North of Ironwood Rd. | | Change Station
CLOSE
Current Station
Personal Weather Station
Location: Pearce, AZ
Elevation: 4365 ft
Nearby Weather Stations

Elev 4365 ft 31.95 °N, 109.88 °W | Updated 35 seconds ago

Mostly Cloudy
Mostly Cloudy
85.2 °F
Feels Like 85 °F
N
0.0
Wind Variable Wind from SE
Gusts 0.0 mph

Today
High -- | Low -- °F
--% Chance of Precip.
Yesterday
High -- | Low -- °F
Precip. -- in
5:54 AM 6:43 PM
Waning Gibbous, 85% visible
Pressure 29.84 in
Visibility 10.0 miles
Clouds Clear
Heat Index 85 °F
Dew Point 58 °F
Humidity 40%
Rainfall 0.00 in
Snow Depth Not available.
UV 2 out of 12
Pollen 4.90 out of 12
Air Quality Not available.
Flu Activity Not available.
METAR KDUG 012356Z AUTO 18004KT 10SM CLR 31/10 A3004 RMK AO2 LTG DSNT NE AND E SLP103 T03110100 10322 20267 56012
Pressure 29.84 in
Visibility 10.0 miles
Clouds Clear
Heat Index 85 °F
Dew Point 58 °F
Humidity 40%
Rainfall 0.00 in
Snow Depth Not available.
UV 2 out of 12
Pollen 4.90 out of 12
Air Quality Not available.
Flu Activity Not available.
METAR KDUG 012356Z AUTO 18004KT 10SM CLR 31/10 A3004 RMK AO2 LTG DSNT NE AND E SLP103 T03110100 10322 20267 56012

10-Day Weather Forecast

×

Almanac

Astronomy

Sep. 01, 2015 Rise Set
Actual Time
Civil Twilight
Nautical Twilight
Astronomical Twilight
Moon
Length of Visible Light
Length of Day
Tomorrow will be .
, % of the Moon is Illuminated

Today's Extremes

State Highs State Lows

Community

WunderPhotos

Upload Photos

1,851,657 photos uploaded!

WunderBlogs® & News

Nearby

Air Quality

  Air Quality AQ Index Pollutant
Not available.

Snow Depth

Station Depth Elevation

Earthquake Activity

City Distance Mag. Time & Date
Minimum magnitude displayed is 2.5.

Coastal Water Temperatures

Place Temperature

Stations

Nearby Weather Stations

Station Location Temp. Windchill Dew Point Humidity Wind Precip. Elev Updated Type